Time;durP1;ratioP1;P1;durP2;ratioP2;P2;SDS_P1;SDS_P2;PMS_P1;PMS_P2;Temp;Humidity;BMP_temperature;BMP_pressure;BME280_temperature;BME280_humidity;BME280_pressure;Samples;Min_cycle;Max_cycle;Signal;HPM_P1;HPM_P2
2023/07/28 00:02:12;;;;;;;;;;;;;;;30.30;39.93;100677.06;102483;1300;61425;-82
2023/07/28 00:04:37;;;;;;;;;;;;;;;30.30;39.85;100681.07;102320;1299;61742;-82
2023/07/28 00:07:03;;;;;;;;;;;;;;;30.29;39.98;100677.27;102445;1301;61240;-82
2023/07/28 00:09:28;;;;;;;;;;;;;;;30.29;39.98;100676.92;102406;1300;61329;-82
2023/07/28 00:11:55;;;;;;;;;;;;;;;30.29;39.95;100674.27;102440;1299;61408;-82
2023/07/28 00:14:20;;;;;;;;;;;;;;;30.29;39.94;100674.41;102321;1300;63769;-82
2023/07/28 00:16:46;;;;;;;;;;;;;;;30.28;40.03;100673.05;102351;1305;61518;-82
2023/07/28 00:19:11;;;;;;;;;;;;;;;30.29;39.86;100676.10;102289;1300;61352;-82
2023/07/28 00:21:37;;;;;;;;;;;;;;;30.28;39.89;100683.55;102526;1299;61402;-82
2023/07/28 00:24:03;;;;;;;;;;;;;;;30.28;39.96;100682.38;102498;1299;61443;-81
2023/07/28 00:26:28;;;;;;;;;;;;;;;30.28;40.03;100687.45;102435;1300;61495;-81
2023/07/28 00:28:54;;;;;;;;;;;;;;;30.28;40.06;100688.36;102511;1300;61358;-82
2023/07/28 00:31:19;;;;;;;;;;;;;;;30.28;40.11;100691.64;102547;1300;61422;-82
2023/07/28 00:33:45;;;;;;;;;;;;;;;30.27;39.92;100691.32;102341;1300;61454;-81
2023/07/28 00:36:10;;;;;;;;;;;;;;;30.27;40.02;100693.50;102491;1305;61515;-81
2023/07/28 00:38:36;;;;;;;;;;;;;;;30.27;39.92;100693.67;102281;1300;65239;-82
2023/07/28 00:41:01;;;;;;;;;;;;;;;30.27;39.88;100694.26;102546;1300;61431;-81
2023/07/28 00:43:26;;;;;;;;;;;;;;;30.28;39.88;100694.73;102350;1300;61735;-82
2023/07/28 00:45:52;;;;;;;;;;;;;;;30.26;39.99;100692.83;102418;1305;62040;-81
2023/07/28 00:48:17;;;;;;;;;;;;;;;30.26;39.88;100692.65;102324;1300;61447;-81
2023/07/28 00:50:46;;;;;;;;;;;;;;;30.26;40.08;100690.68;102407;1300;61484;-81
2023/07/28 00:53:12;;;;;;;;;;;;;;;30.26;39.99;100692.52;102496;1300;65926;-81
2023/07/28 00:55:37;;;;;;;;;;;;;;;30.25;40.11;100691.33;102406;1304;61428;-81
2023/07/28 00:58:03;;;;;;;;;;;;;;;30.25;40.03;100694.02;102442;1300;61450;-81
2023/07/28 01:00:29;;;;;;;;;;;;;;;30.25;39.89;100694.27;102273;1300;61495;-81
2023/07/28 01:02:55;;;;;;;;;;;;;;;30.25;39.93;100694.60;102551;1305;61330;-81
2023/07/28 01:05:21;;;;;;;;;;;;;;;30.24;39.95;100695.06;102498;1300;61434;-82
2023/07/28 01:07:48;;;;;;;;;;;;;;;30.24;39.95;100696.50;102298;1300;62448;-82
2023/07/28 01:10:24;;;;;;;;;;;;;;;30.24;39.90;100694.32;102297;1300;61399;-81
2023/07/28 01:12:50;;;;;;;;;;;;;;;30.24;40.00;100692.34;102498;1305;63892;-82
2023/07/28 01:15:15;;;;;;;;;;;;;;;30.23;39.90;100692.25;102477;1300;61860;-81
2023/07/28 01:17:41;;;;;;;;;;;;;;;30.24;39.85;100686.94;102533;1300;61464;-81
2023/07/28 01:20:07;;;;;;;;;;;;;;;30.23;40.04;100682.62;102326;1300;62402;-82
2023/07/28 01:22:41;;;;;;;;;;;;;;;30.23;39.94;100682.84;102485;1303;61425;-81
2023/07/28 01:25:13;;;;;;;;;;;;;;;30.23;39.88;100681.94;102452;1300;63883;-81
2023/07/28 01:27:42;;;;;;;;;;;;;;;30.23;39.91;100685.04;102493;1300;65831;-81
2023/07/28 01:30:09;;;;;;;;;;;;;;;30.23;39.82;100687.98;102386;1306;61438;-81
2023/07/28 01:32:35;;;;;;;;;;;;;;;30.22;39.82;100690.92;102477;1300;61445;-81
2023/07/28 01:35:01;;;;;;;;;;;;;;;30.22;39.96;100694.20;102334;1305;61331;-82
2023/07/28 01:37:26;;;;;;;;;;;;;;;30.22;39.95;100697.08;102366;1300;61431;-81
2023/07/28 01:39:52;;;;;;;;;;;;;;;30.22;39.96;100692.77;102315;1300;61381;-82
2023/07/28 01:42:17;;;;;;;;;;;;;;;30.22;39.81;100694.05;102410;1305;61412;-82
2023/07/28 01:44:42;;;;;;;;;;;;;;;30.21;40.05;100689.39;102468;1300;61441;-81
2023/07/28 01:47:08;;;;;;;;;;;;;;;30.22;40.08;100695.14;102453;1305;61454;-82
2023/07/28 01:49:34;;;;;;;;;;;;;;;30.21;39.97;100698.65;102419;1300;62096;-81
2023/07/28 01:51:59;;;;;;;;;;;;;;;30.22;40.10;100704.80;102546;1300;61456;-82
2023/07/28 01:54:24;;;;;;;;;;;;;;;30.21;39.97;100702.67;102490;1304;61364;-82
2023/07/28 01:56:50;;;;;;;;;;;;;;;30.21;40.02;100704.00;102481;1300;61323;-82
2023/07/28 01:59:15;;;;;;;;;;;;;;;30.21;39.97;100710.33;102498;1300;61356;-81
2023/07/28 02:01:41;;;;;;;;;;;;;;;30.20;39.95;100712.19;102459;1302;61434;-82
2023/07/28 02:04:07;;;;;;;;;;;;;;;30.20;39.98;100718.02;102444;1300;61420;-83
2023/07/28 02:06:32;;;;;;;;;;;;;;;30.20;40.05;100720.23;102584;1300;61460;-82
2023/07/28 02:08:58;;;;;;;;;;;;;;;30.20;39.81;100717.68;102387;1300;61471;-82
2023/07/28 02:11:23;;;;;;;;;;;;;;;30.19;39.94;100716.48;102453;1300;62458;-82
2023/07/28 02:13:50;;;;;;;;;;;;;;;30.19;40.00;100715.23;102418;1300;61318;-82
2023/07/28 02:16:15;;;;;;;;;;;;;;;30.19;39.96;100718.28;102433;1300;62035;-82
2023/07/28 02:18:41;;;;;;;;;;;;;;;30.19;40.09;100723.90;102450;1300;61424;-82
2023/07/28 02:21:08;;;;;;;;;;;;;;;30.19;40.07;100722.33;102455;1300;61428;-82
2023/07/28 02:23:34;;;;;;;;;;;;;;;30.19;39.93;100717.42;102409;1300;63891;-82
2023/07/28 02:25:59;;;;;;;;;;;;;;;30.19;39.91;100723.59;102450;1300;61530;-82
2023/07/28 02:28:24;;;;;;;;;;;;;;;30.18;39.85;100722.95;102317;1300;61419;-82
2023/07/28 02:30:50;;;;;;;;;;;;;;;30.18;39.91;100728.95;102303;1305;61390;-82
2023/07/28 02:33:15;;;;;;;;;;;;;;;30.18;40.04;100729.35;102527;1300;61408;-82
2023/07/28 02:35:40;;;;;;;;;;;;;;;30.18;40.10;100734.45;102371;1305;61515;-82
2023/07/28 02:38:06;;;;;;;;;;;;;;;30.18;39.93;100734.08;102455;1300;61360;-82
2023/07/28 02:40:33;;;;;;;;;;;;;;;30.17;39.97;100732.52;102479;1301;61310;-82
2023/07/28 02:42:58;;;;;;;;;;;;;;;30.17;39.95;100733.23;102325;1299;62153;-82
2023/07/28 02:45:24;;;;;;;;;;;;;;;30.17;39.86;100727.48;102259;1300;61579;-82
2023/07/28 02:47:50;;;;;;;;;;;;;;;30.17;39.89;100729.67;102437;1300;61419;-82
2023/07/28 02:50:15;;;;;;;;;;;;;;;30.17;40.00;100728.79;102442;1300;65567;-82
2023/07/28 02:52:42;;;;;;;;;;;;;;;30.16;39.98;100726.63;102755;1304;61417;-82
2023/07/28 02:55:07;;;;;;;;;;;;;;;30.16;39.96;100725.92;102403;1305;61955;-82
2023/07/28 02:57:36;;;;;;;;;;;;;;;30.16;39.83;100731.19;102434;1300;61441;-82
2023/07/28 03:00:05;;;;;;;;;;;;;;;30.16;39.89;100731.23;102442;1300;61329;-82
2023/07/28 03:02:31;;;;;;;;;;;;;;;30.16;39.84;100730.52;102491;1300;61338;-82
2023/07/28 03:04:56;;;;;;;;;;;;;;;30.16;39.73;100731.98;102464;1300;61514;-82
2023/07/28 03:07:23;;;;;;;;;;;;;;;30.15;39.85;100732.17;102355;1305;61773;-82
2023/07/28 03:09:49;;;;;;;;;;;;;;;30.15;39.82;100734.17;102275;1300;61406;-82
2023/07/28 03:12:14;;;;;;;;;;;;;;;30.16;39.83;100739.06;102463;1300;61518;-82
2023/07/28 03:14:39;;;;;;;;;;;;;;;30.15;39.84;100743.06;102354;1303;61439;-82
2023/07/28 03:17:05;;;;;;;;;;;;;;;30.15;39.89;100746.94;102333;1305;62299;-82
2023/07/28 03:19:30;;;;;;;;;;;;;;;30.15;39.89;100756.77;102329;1307;61434;-81
2023/07/28 03:21:56;;;;;;;;;;;;;;;30.14;39.93;100753.55;102372;1305;61428;-81
2023/07/28 03:24:21;;;;;;;;;;;;;;;30.15;39.92;100750.80;102456;1300;61403;-81
2023/07/28 03:26:47;;;;;;;;;;;;;;;30.14;40.00;100750.98;102587;1301;62076;-82
2023/07/28 03:29:12;;;;;;;;;;;;;;;30.14;39.82;100751.40;102287;1305;61243;-82
2023/07/28 03:31:38;;;;;;;;;;;;;;;30.13;39.97;100758.17;102322;1305;61505;-82
2023/07/28 03:34:03;;;;;;;;;;;;;;;30.14;39.95;100763.73;102461;1300;61432;-82
2023/07/28 03:36:29;;;;;;;;;;;;;;;30.14;40.05;100766.14;102384;1305;61444;-82
2023/07/28 03:38:54;;;;;;;;;;;;;;;30.14;40.12;100767.40;102471;1312;61393;-82
2023/07/28 03:41:20;;;;;;;;;;;;;;;30.13;39.97;100775.05;102327;1300;61556;-82
2023/07/28 03:43:45;;;;;;;;;;;;;;;30.14;39.94;100779.55;102329;1305;62090;-82
2023/07/28 03:46:11;;;;;;;;;;;;;;;30.14;40.06;100780.84;102398;1305;62038;-82
2023/07/28 03:48:36;;;;;;;;;;;;;;;30.13;40.07;100780.16;102392;1306;61336;-81
2023/07/28 03:51:01;;;;;;;;;;;;;;;30.13;39.80;100783.80;102258;1303;61502;-82
2023/07/28 03:53:27;;;;;;;;;;;;;;;30.13;39.99;100785.40;102371;1305;61352;-82
2023/07/28 03:55:57;;;;;;;;;;;;;;;30.13;39.82;100788.67;102316;1308;61419;-82
2023/07/28 03:58:24;;;;;;;;;;;;;;;30.13;39.89;100786.90;102471;1305;65892;-82
2023/07/28 04:00:51;;;;;;;;;;;;;;;30.13;39.90;100784.38;102439;1305;61320;-82
2023/07/28 04:03:16;;;;;;;;;;;;;;;30.12;40.00;100785.88;102253;1306;62275;-82
2023/07/28 04:05:41;;;;;;;;;;;;;;;30.12;39.98;100790.44;102571;1300;61349;-82
2023/07/28 04:08:08;;;;;;;;;;;;;;;30.12;39.92;100789.00;102320;1306;61392;-81
2023/07/28 04:10:34;;;;;;;;;;;;;;;30.12;39.89;100785.70;102342;1305;61420;-82
2023/07/28 04:12:59;;;;;;;;;;;;;;;30.12;39.92;100787.58;102364;1305;61429;-82
2023/07/28 04:15:24;;;;;;;;;;;;;;;30.12;39.79;100797.39;102232;1300;61403;-82
2023/07/28 04:17:50;;;;;;;;;;;;;;;30.12;39.66;100803.02;102376;1305;61416;-82
2023/07/28 04:20:15;;;;;;;;;;;;;;;30.12;39.71;100809.39;102269;1308;61434;-82
2023/07/28 04:22:41;;;;;;;;;;;;;;;30.12;39.67;100811.73;102455;1302;61362;-82
2023/07/28 04:25:06;;;;;;;;;;;;;;;30.12;39.63;100812.66;102543;1300;61422;-82
2023/07/28 04:27:32;;;;;;;;;;;;;;;30.12;39.57;100809.73;102312;1306;61485;-82
2023/07/28 04:29:58;;;;;;;;;;;;;;;30.10;39.48;100806.60;102388;1306;61448;-82
2023/07/28 04:32:25;;;;;;;;;;;;;;;30.09;39.43;100810.34;102248;1305;61320;-82
2023/07/28 04:34:51;;;;;;;;;;;;;;;30.08;39.44;100812.45;102308;1305;61513;-82
2023/07/28 04:37:17;;;;;;;;;;;;;;;30.06;39.39;100811.70;102511;1300;61376;-82
2023/07/28 04:39:42;;;;;;;;;;;;;;;30.06;39.27;100810.84;102220;1306;62705;-82
2023/07/28 04:42:08;;;;;;;;;;;;;;;30.05;39.34;100812.95;102353;1305;61355;-82
2023/07/28 04:44:33;;;;;;;;;;;;;;;30.04;39.16;100812.31;102368;1306;61904;-82
2023/07/28 04:46:58;;;;;;;;;;;;;;;30.04;39.09;100815.23;102288;1306;61478;-82
2023/07/28 04:49:24;;;;;;;;;;;;;;;30.04;39.08;100817.79;102442;1305;61439;-81
2023/07/28 04:51:49;;;;;;;;;;;;;;;30.04;39.05;100819.48;102388;1306;61341;-82
2023/07/28 04:54:15;;;;;;;;;;;;;;;30.03;38.93;100819.59;102451;1305;61418;-81
2023/07/28 04:56:40;;;;;;;;;;;;;;;30.02;38.79;100822.59;102563;1305;65708;-81
2023/07/28 04:59:06;;;;;;;;;;;;;;;30.01;38.78;100822.27;102212;1306;61364;-83
2023/07/28 05:01:33;;;;;;;;;;;;;;;30.01;38.92;100829.90;102373;1305;61483;-81
2023/07/28 05:03:58;;;;;;;;;;;;;;;30.01;38.75;100831.70;102289;1305;61448;-81
2023/07/28 05:06:24;;;;;;;;;;;;;;;30.01;38.65;100829.36;102264;1305;61772;-81
2023/07/28 05:08:49;;;;;;;;;;;;;;;30.01;38.62;100831.95;102301;1300;61475;-81
2023/07/28 05:11:14;;;;;;;;;;;;;;;30.01;38.62;100835.79;102309;1307;61511;-81
2023/07/28 05:13:40;;;;;;;;;;;;;;;30.01;38.49;100832.11;102395;1305;63022;-81
2023/07/28 05:16:05;;;;;;;;;;;;;;;30.02;38.57;100830.06;102473;1306;61387;-81
2023/07/28 05:18:31;;;;;;;;;;;;;;;30.01;38.39;100828.42;102299;1300;61438;-81
2023/07/28 05:20:56;;;;;;;;;;;;;;;30.02;38.42;100833.66;102413;1306;61425;-81
2023/07/28 05:23:22;;;;;;;;;;;;;;;30.02;38.40;100837.59;102411;1300;61288;-81
2023/07/28 05:25:47;;;;;;;;;;;;;;;30.02;38.35;100840.30;102312;1316;61464;-81
2023/07/28 05:28:12;;;;;;;;;;;;;;;30.03;38.26;100848.38;102341;1306;61467;-82
2023/07/28 05:30:38;;;;;;;;;;;;;;;30.04;38.27;100841.08;102348;1304;62309;-81
2023/07/28 05:33:03;;;;;;;;;;;;;;;30.04;38.21;100840.32;102428;1306;61410;-81
2023/07/28 05:35:29;;;;;;;;;;;;;;;30.04;38.18;100837.73;102406;1306;61435;-81
2023/07/28 05:37:54;;;;;;;;;;;;;;;30.05;38.22;100833.85;102419;1302;61469;-81
2023/07/28 05:40:20;;;;;;;;;;;;;;;30.05;38.02;100838.05;102325;1300;61509;-82
2023/07/28 05:42:45;;;;;;;;;;;;;;;30.05;38.00;100841.98;102430;1305;61521;-82
2023/07/28 05:45:10;;;;;;;;;;;;;;;30.06;38.02;100844.11;102491;1302;65793;-82
2023/07/28 05:47:36;;;;;;;;;;;;;;;30.06;38.06;100838.77;102244;1309;61485;-82
2023/07/28 05:50:02;;;;;;;;;;;;;;;30.07;38.05;100839.66;102355;1300;61307;-82
2023/07/28 05:52:27;;;;;;;;;;;;;;;30.07;37.91;100840.69;102347;1304;61492;-82
2023/07/28 05:54:54;;;;;;;;;;;;;;;30.07;37.88;100838.69;102281;1306;61344;-82
2023/07/28 05:57:19;;;;;;;;;;;;;;;30.08;37.91;100837.33;102416;1305;61494;-81
2023/07/28 05:59:45;;;;;;;;;;;;;;;30.08;37.86;100837.11;102634;1301;61313;-82
2023/07/28 06:02:11;;;;;;;;;;;;;;;30.09;37.86;100838.45;102820;1299;61873;-82
2023/07/28 06:04:37;;;;;;;;;;;;;;;30.11;37.90;100841.23;102773;1299;61976;-82
2023/07/28 06:07:02;;;;;;;;;;;;;;;30.12;37.94;100837.80;102428;1305;61404;-82
2023/07/28 06:09:28;;;;;;;;;;;;;;;30.13;37.86;100836.44;102444;1300;61442;-82
2023/07/28 06:11:53;;;;;;;;;;;;;;;30.14;37.90;100840.31;102841;1305;61436;-82
2023/07/28 06:14:23;;;;;;;;;;;;;;;30.14;37.68;100841.55;102440;1301;61415;-82
2023/07/28 06:16:48;;;;;;;;;;;;;;;30.16;37.84;100840.49;102688;1300;64140;-82
2023/07/28 06:19:15;;;;;;;;;;;;;;;30.16;37.85;100837.34;102449;1302;61430;-82
2023/07/28 06:21:41;;;;;;;;;;;;;;;30.17;37.82;100838.00;102323;1306;61311;-82
2023/07/28 06:24:06;;;;;;;;;;;;;;;30.17;37.65;100837.57;102699;1302;61382;-82
2023/07/28 06:26:31;;;;;;;;;;;;;;;30.18;37.63;100838.02;102484;1302;61408;-82
2023/07/28 06:28:57;;;;;;;;;;;;;;;30.19;37.56;100838.66;102597;1306;61410;-82
2023/07/28 06:31:22;;;;;;;;;;;;;;;30.19;37.57;100835.73;102479;1300;74483;-82
2023/07/28 06:33:48;;;;;;;;;;;;;;;30.19;37.53;100838.45;102466;1300;61476;-82
2023/07/28 06:36:13;;;;;;;;;;;;;;;30.20;37.45;100838.55;102411;1306;61442;-82
2023/07/28 06:38:39;;;;;;;;;;;;;;;30.20;37.38;100838.73;102394;1300;61439;-82
2023/07/28 06:41:04;;;;;;;;;;;;;;;30.20;37.28;100837.67;102527;1313;61439;-81
2023/07/28 06:43:30;;;;;;;;;;;;;;;30.20;37.24;100838.18;102385;1305;65880;-80
2023/07/28 06:45:55;;;;;;;;;;;;;;;30.20;37.20;100835.45;102212;1306;61517;-80
2023/07/28 06:48:21;;;;;;;;;;;;;;;30.21;37.25;100835.77;102301;1305;61413;-80
2023/07/28 06:50:46;;;;;;;;;;;;;;;30.21;37.12;100837.37;102709;1302;61441;-80
2023/07/28 06:53:12;;;;;;;;;;;;;;;30.21;37.23;100836.11;102794;1301;61440;-80
2023/07/28 06:55:39;;;;;;;;;;;;;;;30.21;36.88;100834.31;102499;1304;61405;-81
2023/07/28 06:58:07;;;;;;;;;;;;;;;30.22;36.98;100832.94;102499;1303;61402;-81
2023/07/28 07:00:33;;;;;;;;;;;;;;;30.22;36.88;100834.36;102477;1301;61380;-81
2023/07/28 07:02:58;;;;;;;;;;;;;;;30.22;36.84;100836.88;102631;1305;61428;-81
2023/07/28 07:05:25;;;;;;;;;;;;;;;30.22;36.75;100834.67;102286;1300;61331;-81
2023/07/28 07:07:50;;;;;;;;;;;;;;;30.23;36.79;100834.61;102501;1306;61352;-81
2023/07/28 07:10:15;;;;;;;;;;;;;;;30.23;36.78;100836.25;101999;1300;642012;-81
2023/07/28 07:12:41;;;;;;;;;;;;;;;30.23;36.73;100837.67;102469;1300;61410;-81
2023/07/28 07:15:07;;;;;;;;;;;;;;;30.23;36.63;100834.58;102270;1305;62089;-81
2023/07/28 07:17:32;;;;;;;;;;;;;;;30.24;36.48;100836.52;102401;1307;61495;-80
2023/07/28 07:19:58;;;;;;;;;;;;;;;30.24;36.48;100833.42;102353;1300;61464;-81
2023/07/28 07:22:23;;;;;;;;;;;;;;;30.24;36.41;100831.04;102293;1306;61415;-81
2023/07/28 07:24:49;;;;;;;;;;;;;;;30.24;36.36;100829.90;102312;1306;61510;-81
2023/07/28 07:27:14;;;;;;;;;;;;;;;30.24;36.43;100829.33;102335;1299;61469;-81
2023/07/28 07:29:39;;;;;;;;;;;;;;;30.25;36.38;100827.91;102525;1300;61361;-81
2023/07/28 07:32:06;;;;;;;;;;;;;;;30.25;36.32;100828.59;102309;1302;61443;-81
2023/07/28 07:34:32;;;;;;;;;;;;;;;30.25;36.35;100830.05;102507;1300;61398;-81
2023/07/28 07:36:58;;;;;;;;;;;;;;;30.24;36.15;100827.18;102471;1299;61406;-81
2023/07/28 07:39:23;;;;;;;;;;;;;;;30.25;35.93;100828.79;102409;1306;61418;-81
2023/07/28 07:41:49;;;;;;;;;;;;;;;30.25;35.99;100834.71;102314;1302;61485;-81
2023/07/28 07:44:14;;;;;;;;;;;;;;;30.25;35.86;100830.55;102350;1306;61489;-81
2023/07/28 07:46:39;;;;;;;;;;;;;;;30.25;35.78;100832.20;102354;1300;61415;-81
2023/07/28 07:49:05;;;;;;;;;;;;;;;30.24;35.77;100834.23;102397;1302;61418;-80
2023/07/28 07:51:31;;;;;;;;;;;;;;;30.25;35.92;100836.92;102307;1307;62288;-81
2023/07/28 07:53:56;;;;;;;;;;;;;;;30.25;35.80;100835.45;102613;1300;61448;-81
2023/07/28 07:56:22;;;;;;;;;;;;;;;30.24;35.60;100833.14;102377;1306;61482;-81
2023/07/28 07:58:47;;;;;;;;;;;;;;;30.24;35.87;100832.46;102262;1306;61497;-81
2023/07/28 08:01:13;;;;;;;;;;;;;;;30.24;35.56;100832.66;102326;1302;61848;-81
2023/07/28 08:03:39;;;;;;;;;;;;;;;30.24;35.68;100834.71;102295;1300;61529;-81
2023/07/28 08:06:05;;;;;;;;;;;;;;;30.23;35.66;100828.55;102396;1300;61373;-82
2023/07/28 08:08:30;;;;;;;;;;;;;;;30.23;35.45;100827.67;102598;1300;61482;-82
2023/07/28 08:10:56;;;;;;;;;;;;;;;30.23;35.54;100825.15;102589;1300;61513;-82
2023/07/28 08:13:22;;;;;;;;;;;;;;;30.23;35.28;100830.98;102572;1300;61385;-82
2023/07/28 08:15:48;;;;;;;;;;;;;;;30.23;35.35;100832.78;102447;1300;61432;-82
2023/07/28 08:18:13;;;;;;;;;;;;;;;30.23;35.28;100832.03;102508;1305;61420;-82
2023/07/28 08:20:39;;;;;;;;;;;;;;;30.23;35.26;100830.40;102444;1303;61990;-82
2023/07/28 08:23:05;;;;;;;;;;;;;;;30.23;35.20;100828.38;102470;1300;61338;-82
2023/07/28 08:25:30;;;;;;;;;;;;;;;30.23;35.09;100826.38;102663;1300;63918;-82
2023/07/28 08:27:56;;;;;;;;;;;;;;;30.24;35.02;100829.23;102489;1305;61772;-82
2023/07/28 08:30:21;;;;;;;;;;;;;;;30.24;34.91;100827.70;102336;1300;61416;-82
2023/07/28 08:32:46;;;;;;;;;;;;;;;30.24;34.88;100825.02;102580;1300;61473;-82
2023/07/28 08:35:12;;;;;;;;;;;;;;;30.25;34.80;100822.44;102394;1300;61518;-82
2023/07/28 08:37:37;;;;;;;;;;;;;;;30.25;34.80;100814.73;102479;1300;62343;-82
2023/07/28 08:40:04;;;;;;;;;;;;;;;30.25;34.87;100811.84;102529;1300;61422;-82
2023/07/28 08:42:35;;;;;;;;;;;;;;;30.25;34.58;100807.69;102619;1300;61524;-82
2023/07/28 08:45:01;;;;;;;;;;;;;;;30.25;34.64;100803.98;102576;1300;61360;-82
2023/07/28 08:47:26;;;;;;;;;;;;;;;30.26;34.52;100803.40;102400;1300;61396;-82
2023/07/28 08:49:52;;;;;;;;;;;;;;;30.26;34.61;100805.23;102457;1305;62502;-82
2023/07/28 08:52:17;;;;;;;;;;;;;;;30.27;34.37;100806.77;102496;1300;61419;-82
2023/07/28 08:54:43;;;;;;;;;;;;;;;30.27;34.44;100810.73;102540;1300;61422;-82
2023/07/28 08:57:10;;;;;;;;;;;;;;;30.27;34.23;100805.85;102513;1300;61436;-82
2023/07/28 08:59:36;;;;;;;;;;;;;;;30.27;34.27;100805.85;102513;1301;63850;-82
2023/07/28 09:02:06;;;;;;;;;;;;;;;30.27;34.29;100802.55;102465;1300;65711;-82
2023/07/28 09:04:32;;;;;;;;;;;;;;;30.28;34.13;100803.81;102404;1302;61435;-82
2023/07/28 09:06:57;;;;;;;;;;;;;;;30.28;34.13;100808.13;102354;1300;61432;-82
2023/07/28 09:09:23;;;;;;;;;;;;;;;30.28;34.05;100805.96;102510;1305;62606;-82
2023/07/28 09:11:50;;;;;;;;;;;;;;;30.28;34.02;100804.08;102512;1300;61392;-82
2023/07/28 09:14:19;;;;;;;;;;;;;;;30.29;34.02;100801.69;102592;1300;61425;-81
2023/07/28 09:16:44;;;;;;;;;;;;;;;30.29;33.96;100803.14;102810;1300;61421;-82
2023/07/28 09:19:10;;;;;;;;;;;;;;;30.29;33.85;100793.69;102531;1305;61867;-82
2023/07/28 09:21:35;;;;;;;;;;;;;;;30.29;33.79;100790.05;102512;1302;61822;-82
2023/07/28 09:24:02;;;;;;;;;;;;;;;30.29;33.84;100782.46;102611;1300;62622;-82
2023/07/28 09:26:41;;;;;;;;;;;;;;;30.29;33.77;100781.14;102356;1300;62072;-82
2023/07/28 09:29:12;;;;;;;;;;;;;;;30.29;33.76;100781.34;102441;1305;61403;-82
2023/07/28 09:31:38;;;;;;;;;;;;;;;30.29;33.79;100782.39;102297;1302;63873;-81
2023/07/28 09:34:06;;;;;;;;;;;;;;;30.29;33.54;100784.23;102278;1300;61409;-82
2023/07/28 09:36:32;;;;;;;;;;;;;;;30.29;33.63;100779.20;102307;1300;61365;-82
2023/07/28 09:38:57;;;;;;;;;;;;;;;30.28;33.60;100778.73;102406;1300;62034;-82
2023/07/28 09:41:22;;;;;;;;;;;;;;;30.28;33.60;100775.30;102370;1308;61345;-81
2023/07/28 09:43:49;;;;;;;;;;;;;;;30.28;33.59;100774.36;102255;1303;61520;-82
2023/07/28 09:46:16;;;;;;;;;;;;;;;30.27;33.65;100776.65;102449;1300;61378;-81
2023/07/28 09:48:43;;;;;;;;;;;;;;;30.26;33.61;100775.96;102320;1300;61485;-81
2023/07/28 09:51:12;;;;;;;;;;;;;;;30.27;33.64;100775.35;102429;1300;61365;-83
2023/07/28 09:53:40;;;;;;;;;;;;;;;30.27;33.46;100773.02;102554;1300;65873;-82
2023/07/28 09:56:06;;;;;;;;;;;;;;;30.27;33.45;100779.71;102531;1303;61397;-82
2023/07/28 09:58:32;;;;;;;;;;;;;;;30.28;33.39;100770.59;102435;1300;62037;-82
2023/07/28 10:00:57;;;;;;;;;;;;;;;30.28;33.56;100764.05;102377;1299;61486;-81
2023/07/28 10:03:23;;;;;;;;;;;;;;;30.27;33.45;100765.01;102833;1299;61434;-81
2023/07/28 10:05:48;;;;;;;;;;;;;;;30.28;33.52;100760.96;102686;1300;61440;-81
2023/07/28 10:08:13;;;;;;;;;;;;;;;30.27;33.37;100756.84;102409;1303;61431;-82
2023/07/28 10:10:40;;;;;;;;;;;;;;;30.28;33.46;100756.80;102724;1300;61443;-81
2023/07/28 10:13:05;;;;;;;;;;;;;;;30.28;33.52;100748.43;102351;1300;61345;-81
2023/07/28 10:15:31;;;;;;;;;;;;;;;30.28;33.71;100742.99;102454;1299;62133;-82
2023/07/28 10:18:00;;;;;;;;;;;;;;;30.28;33.58;100746.80;102496;1300;61360;-82
2023/07/28 10:20:35;;;;;;;;;;;;;;;30.28;33.41;100745.51;102392;1308;61383;-82
2023/07/28 10:23:08;;;;;;;;;;;;;;;30.28;33.56;100746.73;102406;1300;63960;-82
2023/07/28 10:25:35;;;;;;;;;;;;;;;30.28;33.59;100745.85;102486;1304;66857;-82
2023/07/28 10:28:02;;;;;;;;;;;;;;;30.28;33.61;100738.98;102460;1305;61460;-82
2023/07/28 10:30:27;;;;;;;;;;;;;;;30.28;33.57;100741.50;102506;1302;61345;-82
2023/07/28 10:32:53;;;;;;;;;;;;;;;30.28;33.37;100741.19;102374;1300;61432;-82
2023/07/28 10:35:22;;;;;;;;;;;;;;;30.28;33.59;100739.01;102261;1300;61418;-82
2023/07/28 10:37:48;;;;;;;;;;;;;;;30.27;33.46;100745.58;102439;1300;61864;-82
2023/07/28 10:40:34;;;;;;;;;;;;;;;30.28;33.43;100741.56;102477;1299;61557;-82
2023/07/28 10:43:00;;;;;;;;;;;;;;;30.28;33.35;100743.54;102436;1299;65603;-82
2023/07/28 10:45:27;;;;;;;;;;;;;;;30.27;33.62;100737.44;102348;1300;61435;-82
2023/07/28 10:47:55;;;;;;;;;;;;;;;30.26;33.59;100741.48;102270;1309;61262;-82
2023/07/28 10:50:22;;;;;;;;;;;;;;;30.26;33.56;100733.83;102374;1300;61323;-82
2023/07/28 10:52:47;;;;;;;;;;;;;;;30.26;33.53;100727.67;102362;1300;61316;-82
2023/07/28 10:55:17;;;;;;;;;;;;;;;30.26;33.60;100721.31;102233;1300;61514;-82
2023/07/28 10:57:43;;;;;;;;;;;;;;;30.26;33.63;100722.64;102202;1300;61336;-82
2023/07/28 11:00:08;;;;;;;;;;;;;;;30.26;33.65;100716.67;102288;1300;61428;-82
2023/07/28 11:02:38;;;;;;;;;;;;;;;30.25;33.59;100711.95;102391;1299;61440;-82
2023/07/28 11:05:09;;;;;;;;;;;;;;;30.25;33.63;100713.79;102369;1305;65877;-82
2023/07/28 11:07:34;;;;;;;;;;;;;;;30.25;33.61;100710.38;102427;1305;61501;-82
2023/07/28 11:10:01;;;;;;;;;;;;;;;30.25;33.74;100707.24;102415;1300;61397;-82
2023/07/28 11:12:27;;;;;;;;;;;;;;;30.25;33.64;100701.67;102429;1300;61429;-82
2023/07/28 11:14:52;;;;;;;;;;;;;;;30.25;33.67;100704.77;102262;1308;61345;-82
2023/07/28 11:17:18;;;;;;;;;;;;;;;30.25;33.64;100701.30;102217;1300;61304;-82
2023/07/28 11:19:45;;;;;;;;;;;;;;;30.25;33.72;100698.44;102403;1300;61363;-82
2023/07/28 11:22:12;;;;;;;;;;;;;;;30.24;33.67;100693.37;102220;1308;61432;-82
2023/07/28 11:24:37;;;;;;;;;;;;;;;30.25;33.67;100689.19;102201;1300;61502;-82
2023/07/28 11:27:03;;;;;;;;;;;;;;;30.24;33.62;100681.60;102329;1300;61466;-82
2023/07/28 11:29:28;;;;;;;;;;;;;;;30.24;33.53;100679.41;102194;1300;61409;-82
2023/07/28 11:31:55;;;;;;;;;;;;;;;30.24;33.82;100673.80;102390;1300;61310;-82
2023/07/28 11:34:20;;;;;;;;;;;;;;;30.24;33.73;100675.27;102187;1308;61435;-82
2023/07/28 11:36:46;;;;;;;;;;;;;;;30.24;33.87;100674.55;102388;1300;61485;-82
2023/07/28 11:39:11;;;;;;;;;;;;;;;30.24;33.83;100669.14;102262;1300;61972;-82
2023/07/28 11:41:37;;;;;;;;;;;;;;;30.24;33.89;100669.23;102281;1300;61416;-82
2023/07/28 11:44:03;;;;;;;;;;;;;;;30.25;33.90;100669.41;102400;1300;61372;-81
2023/07/28 11:46:41;;;;;;;;;;;;;;;30.24;33.81;100665.84;102329;1300;61414;-82
2023/07/28 11:49:18;;;;;;;;;;;;;;;30.24;33.78;100668.22;102417;1303;65846;-82
2023/07/28 11:51:45;;;;;;;;;;;;;;;30.24;33.91;100664.00;102492;1302;61319;-82
2023/07/28 11:54:14;;;;;;;;;;;;;;;30.24;33.84;100656.21;102214;1300;61450;-82
2023/07/28 11:56:43;;;;;;;;;;;;;;;30.24;33.94;100657.64;102381;1299;63995;-82
2023/07/28 11:59:09;;;;;;;;;;;;;;;30.24;33.79;100650.25;102387;1300;65864;-82
2023/07/28 12:01:35;;;;;;;;;;;;;;;30.24;33.77;100650.59;102291;1300;61435;-82
2023/07/28 12:04:18;;;;;;;;;;;;;;;30.25;33.76;100648.13;102410;1308;61328;-82
2023/07/28 12:07:03;;;;;;;;;;;;;;;30.25;33.81;100645.20;102194;1300;64890;-82
2023/07/28 12:09:29;;;;;;;;;;;;;;;30.25;33.85;100641.98;102392;1300;65864;-82
2023/07/28 12:11:56;;;;;;;;;;;;;;;30.26;33.98;100643.33;102378;1306;62042;-82
2023/07/28 12:14:34;;;;;;;;;;;;;;;30.26;33.87;100645.69;102518;1300;62022;-82
2023/07/28 12:17:00;;;;;;;;;;;;;;;30.26;33.97;100644.52;102439;1300;63936;-82
2023/07/28 12:19:27;;;;;;;;;;;;;;;30.26;34.03;100636.92;102326;1299;61323;-82
2023/07/28 12:21:53;;;;;;;;;;;;;;;30.26;34.09;100630.20;102373;1305;61361;-81